Sweeney Granite Mountains, California Weather observations

Data are for 10 minute period ending at time listed.
 Day   Time   Solar   Ave.   Ave.  Ave.  Vector  Max.   Baro.   Total    
  of    of     Rad.   Air    Rel.  Wind   Wind   Wind  Press.  Precip.   
Year   Day            Temp.  Hum.  Speed  Dir.   Gust                    
2016   (PST)  Kw/m2    F      %     mph   deg.    mph    mb.     in.     
-------------------------------------------------------------------------
 342    5:10   0.00   41.6    33   15.8   304    20.7   866.7    0.00 
 342    5:20   0.00   41.3    33   14.8   304    22.6   866.9    0.00 
 342    5:30   0.00   40.9    34   13.2   303    18.6   867.2    0.00 
 342    5:40   0.00   40.7    34   14.3   312    20.8   867.4    0.00 
 342    5:50   0.00   40.4    35   14.9   310    22.6   867.6    0.00 
 342    6:00   0.00   40.0    36   15.4   308    22.3   867.9    0.00 
 342    6:10   0.00   39.5    38   16.5   306    25.5   868.0    0.00 
 342    6:20   0.00   39.1    38   14.9   303    22.2   868.2    0.00 
 342    6:30   0.00   38.9    38   16.5   302    24.6   868.3    0.00 
 342    6:40   0.00   38.8    38   16.5   306    24.1   868.4    0.00 
 342    6:50   0.00   38.8    37   17.4   305    25.9   868.5    0.00 
 342    7:00   0.01   38.7    35   18.4   306    30.0   868.6    0.00 
 342    7:10   0.03   38.7    33   19.9   307    29.0   868.8    0.00 
 342    7:20   0.05   38.4    31   20.8   305    28.1   868.9    0.00 
 342    7:30   0.06   38.3    29   20.3   306    29.5   869.0    0.00 
 342    7:40   0.08   38.4    28   20.6   308    31.5   869.2    0.00 
 342    7:50   0.08   38.6    28   19.1   306    27.2   869.3    0.00 
 342    8:00   0.11   39.1    27   18.4   307    27.0   869.3    0.00 
 342    8:10   0.11   39.7    26   17.9   309    25.1   869.5    0.00 
 342    8:20   0.16   40.4    25   17.6   308    24.4   869.6    0.00 
 342    8:30   0.16   40.3    25   18.8   310    25.0   869.8    0.00 
 342    8:40   0.15   40.0    25   19.5   306    26.5   870.0    0.00 
 342    8:50   0.14   39.8    25   18.3   308    26.7   870.2    0.00 
 342    9:00   0.17   40.6    24   17.0   308    25.7   870.3    0.00 
 342    9:10   0.21   41.1    24   17.6   310    26.4   870.3    0.00 
 342    9:20   0.23   41.3    24   16.5   309    22.1   870.4    0.00 
 342    9:30   0.19   41.5    24   15.2   314    21.0   870.6    0.00 
 342    9:40   0.24   42.1    23   15.4   309    21.8   870.7    0.00 
 342    9:50   0.27   42.5    23   16.8   306    23.1   870.8    0.00 
 342   10:00   0.37   42.7    23   16.6   312    27.3   870.8    0.00 
 342   10:10   0.47   43.7    22   15.1   314    23.7   870.9    0.00 
 342   10:20   0.48   44.0    22   14.9   310    23.2   870.9    0.00 
 342   10:30   0.36   43.6    22   14.9   311    22.2   870.9    0.00 
 342   10:40   0.58   44.6    21   15.8   309    24.8   870.7    0.00 
 342   10:50   0.46   44.5    22   15.1   311    24.7   870.6    0.00 
 342   11:00   0.57   45.0    21   13.8   306    24.7   870.5    0.00 
 342   11:10   0.52   44.9    21   16.7   308    26.7   870.5    0.00 
 342   11:20   0.43   44.8    22   14.5   304    23.5   870.5    0.00 
 342   11:30   0.35   44.1    22   14.3   306    21.6   870.4    0.00 
 342   11:40   0.44   44.3    22   12.6   314    20.4   870.3    0.00 
 342   11:50   0.49   44.8    21   12.1   311    18.3   870.2    0.00 
 342   12:00   0.45   45.3    21   11.3   313    20.2   870.2    0.00 
 342   12:10   0.52   45.5    22   12.5   311    20.9   870.2    0.00 
 342   12:20   0.47   45.4    22   11.4   314    19.4   870.2    0.00 
 342   12:30   0.41   45.2    21   11.8   310    19.5   870.2    0.00 
 342   12:40   0.48   45.1    22   11.8   316    18.3   870.2    0.00 
 342   12:50   0.41   45.0    22   11.1   319    18.6   870.2    0.00 
 342   13:00   0.46   44.9    22   10.8   318    19.4   870.2    0.00 
 342   13:10   0.49   45.3    21   11.5   319    18.8   870.1    0.00 
 342   13:20   0.49   45.2    21   10.4   316    18.3   870.2    0.00 
 342   13:30   0.48   45.7    21   10.9   307    16.7   870.2    0.00 
 342   13:40   0.45   46.0    20   10.2   302    16.6   870.2    0.00 
 342   13:50   0.43   45.5    20   12.9   295    19.2   870.1    0.00 
 342   14:00   0.41   45.1    21   11.8   311    22.6   870.1    0.00 
 342   14:10   0.39   45.4    21   10.4   306    17.3   870.1    0.00 
 342   14:20   0.36   45.7    20   10.1   297    15.9   870.0    0.00 
 342   14:30   0.34   45.3    21    9.8   314    18.6   870.2    0.00 
 342   14:40   0.32   45.3    21    9.3   314    16.6   870.2    0.00 
 342   14:50   0.30   45.5    21    9.3   305    15.5   870.3    0.00 
 342   15:00   0.23   45.6    21    8.0   303    14.6   870.4    0.00 
 342   15:10   0.07   44.2    22    8.8   306    13.2   870.5    0.00 
 342   15:20   0.11   43.9    23    8.4   307    14.6   870.5    0.00 
 342   15:30   0.09   44.0    23    8.8   305    13.0   870.5    0.00 
 342   15:40   0.04   43.4    23    8.8   306    14.2   870.5    0.00 
 342   15:50   0.04   43.2    23    8.3   305    11.9   870.5    0.00 
 342   16:00   0.04   43.3    23    8.2   305    11.8   870.5    0.00 
 342   16:10   0.03   43.0    23    8.6   302    11.1   870.6    0.00 
 342   16:20   0.02   43.0    24    4.7   299     8.5   870.5    0.00 
 342   16:30   0.01   42.5    24    3.8   276     6.5   870.6    0.00 
 342   16:40   0.00   41.7    25    5.3   282     9.4   870.6    0.00 
 342   16:50   0.00   41.2    25    6.1   296     8.9   870.7    0.00 
 342   17:00   0.00   40.9    26    5.0   291     6.7   870.7    0.00 
 342   17:10   0.00   40.9    26    3.2   266     6.1   870.8    0.00 
 342   17:20   0.00   41.7    25    2.4   242     5.4   870.9    0.00 
 342   17:30   0.00   41.6    25    2.8   254     4.6   871.0    0.00 
 342   17:40   0.00   40.7    26    1.6   248     3.9   871.2    0.00 
 342   17:50   0.00   40.3    26    0.4   327     1.2   871.3    0.00 
 342   18:00   0.00   39.4    27    0.5    76     1.8   871.4    0.00 
 342   18:10   0.00   38.4    28    2.1   286     5.3   871.5    0.00 
 342   18:20   0.00   39.1    28    4.2   277     5.4   871.7    0.00 
 342   18:30   0.00   40.1    27    3.9   291     6.1   871.8    0.00 
 342   18:40   0.00   40.1    26    6.0   299     9.5   872.0    0.00 
 342   18:50   0.00   40.5    26    7.3   309    11.1   872.1    0.00 
 342   19:00   0.00   40.4    26    6.4   298    11.0   872.1    0.00 
 342   19:10   0.00   40.2    26    7.2   276     9.9   872.2    0.00 
 342   19:20   0.00   40.0    26    7.5   287    11.7   872.2    0.00 
 342   19:30   0.00   39.8    27    7.0   295    10.8   872.2    0.00 
 342   19:40   0.00   39.9    26    6.6   295     9.1   872.2    0.00 
 342   19:50   0.00   40.3    25    5.5   304     7.8   872.2    0.00 
 342   20:00   0.00   40.5    24    3.8   292     7.6   872.2    0.00 
 342   20:10   0.00   40.4    25    5.6   282     9.3   872.2    0.00 
 342   20:20   0.00   40.0    25    3.6   299     6.6   872.2    0.00 
 342   20:30   0.00   39.7    25    0.9   265     2.3   872.2    0.00 
 342   20:40   0.00   39.1    26    2.5   259     5.0   872.2    0.00 
 342   20:50   0.00   40.3    25    5.5   262     9.6   872.3    0.00 
 342   21:00   0.00   39.8    25    4.1   279     7.7   872.3    0.00 
 342   21:10   0.00   39.9    25    4.8   277     6.7   872.3    0.00 
 342   21:20   0.00   39.3    26    4.4   274     8.3   872.4    0.00 
 342   21:30   0.00   39.4    26    4.9   276     6.4   872.5    0.00 
 342   21:40   0.00   40.0    26    4.8   257     6.7   872.4    0.00 
 342   21:50   0.00   39.7    26    3.1   256     5.6   872.4    0.00 
 342   22:00   0.00   38.8    27    1.3   280     2.7   872.5    0.00 
 342   22:10   0.00   39.0    27    0.6   270     1.4   872.5    0.00 
 342   22:20   0.00   37.4    29    1.3   264     2.6   872.5    0.00 
 342   22:30   0.00   38.3    28    1.3   312     2.2   872.5    0.00 
 342   22:40   0.00   34.1    32    1.0   251     3.5   872.4    0.00 
 342   22:50   0.00   34.3    32    2.8   294     4.2   872.4    0.00 
 342   23:00   0.00   35.8    30    2.3   287     2.8   872.4    0.00 
 342   23:10   0.00   33.7    32    1.8   278     2.8   872.4    0.00 
 342   23:20   0.00   34.0    32    4.1   288     5.1   872.4    0.00 
 342   23:30   0.00   35.9    31    4.3   270     5.5   872.4    0.00 
 342   23:40   0.00   36.7    29    2.8   277     4.2   872.4    0.00 
 342   23:50   0.00   37.1    28    1.8   301     2.9   872.4    0.00 
 343    0:00   0.00   35.6    30    3.1   261     6.4   872.4    0.00 
 343    0:10   0.00   37.8    28    1.0   349     3.7   872.4    0.00 
 343    0:20   0.00   37.7    28    3.9   282     5.3   872.4    0.00 
 343    0:30   0.00   37.4    29    2.2   280     4.4   872.4    0.00 
 343    0:40   0.00   36.9    29    2.0   292     3.2   872.4    0.00 
 343    0:50   0.00   35.9    31    2.1   311     3.5   872.5    0.00 
 343    1:00   0.00   35.2    31    2.1   276     4.3   872.4    0.00 
 343    1:10   0.00   35.5    32    2.9   292     4.4   872.4    0.00 
 343    1:20   0.00   35.6    31    1.2   314     2.3   872.4    0.00 
 343    1:30   0.00   33.9    33    2.7   278     3.6   872.4    0.00 
 343    1:40   0.00   34.4    33    2.7   276     3.7   872.3    0.00 
 343    1:50   0.00   34.1    33    2.0   296     3.4   872.3    0.00 
 343    2:00   0.00   34.6    33    0.3   124     0.9   872.4    0.00 
 343    2:10   0.00   33.5    35    3.2   283     4.8   872.4    0.00 
 343    2:20   0.00   37.8    30    2.8   276     4.4   872.4    0.00 
 343    2:30   0.00   36.0    31    1.4   284     2.9   872.4    0.00 
 343    2:40   0.00   36.2    31    3.7   280     5.3   872.5    0.00 
 343    2:50   0.00   35.8    32    2.5   287     3.1   872.5    0.00 
 343    3:00   0.00   34.9    32    2.4   285     3.2   872.4    0.00 
 343    3:10   0.00   33.7    34    1.3   278     2.4   872.4    0.00 
 343    3:20   0.00   34.6    33    2.5   300     4.5   872.4    0.00 
 343    3:30   0.00   34.9    33    3.2   278     4.0   872.4    0.00 
 343    3:40   0.00   32.8    36    2.8   282     3.5   872.3    0.00 
 343    3:50   0.00   31.4    38    3.0   273     3.7   872.3    0.00 
 343    4:00   0.00   34.1    34    3.4   285     4.2   872.4    0.00 
 343    4:10   0.00   35.2    32    2.4   288     3.7   872.3    0.00 
 343    4:20   0.00   35.0    33    1.6   296     2.7   872.2    0.00 
 343    4:30   0.00   33.8    35    2.8   294     3.3   872.5    0.00 
 343    4:40   0.00   33.5    35    2.0   290     2.8   872.4    0.00 
 343    4:50   0.00   33.6    35    3.2   282     4.5   872.5    0.00 
 343    5:00   0.00   34.8    33    2.7   287     3.6   872.5    0.00 

Return to Sweeney Granite Mountains graphs page.


Western Regional Climate Center,wrcc@dri.edu